sensor_id;sensor_type;location;lat;lon;timestamp;temperature;humidity
64888;DHT22;51386;53.082;8.816;2023-11-22T00:00:59;7.50;91.50
64888;DHT22;51386;53.082;8.816;2023-11-22T00:03:28;7.50;91.70
64888;DHT22;51386;53.082;8.816;2023-11-22T00:05:57;7.50;91.90
64888;DHT22;51386;53.082;8.816;2023-11-22T00:08:25;7.50;91.50
64888;DHT22;51386;53.082;8.816;2023-11-22T00:10:53;7.60;91.70
64888;DHT22;51386;53.082;8.816;2023-11-22T00:13:22;7.50;91.70
64888;DHT22;51386;53.082;8.816;2023-11-22T00:15:51;7.60;91.50
64888;DHT22;51386;53.082;8.816;2023-11-22T00:18:19;7.60;91.40
64888;DHT22;51386;53.082;8.816;2023-11-22T00:20:48;7.60;91.60
64888;DHT22;51386;53.082;8.816;2023-11-22T00:23:16;7.50;91.90
64888;DHT22;51386;53.082;8.816;2023-11-22T00:25:45;7.50;91.90
64888;DHT22;51386;53.082;8.816;2023-11-22T00:28:13;7.60;91.90
64888;DHT22;51386;53.082;8.816;2023-11-22T00:30:42;7.60;91.80
64888;DHT22;51386;53.082;8.816;2023-11-22T00:33:10;7.70;91.80
64888;DHT22;51386;53.082;8.816;2023-11-22T00:35:38;7.70;91.60
64888;DHT22;51386;53.082;8.816;2023-11-22T00:38:07;7.70;91.40
64888;DHT22;51386;53.082;8.816;2023-11-22T00:40:35;7.70;91.60
64888;DHT22;51386;53.082;8.816;2023-11-22T00:43:04;7.70;91.50
64888;DHT22;51386;53.082;8.816;2023-11-22T00:45:32;7.80;91.80
64888;DHT22;51386;53.082;8.816;2023-11-22T00:48:01;7.70;91.40
64888;DHT22;51386;53.082;8.816;2023-11-22T00:50:30;7.80;91.40
64888;DHT22;51386;53.082;8.816;2023-11-22T00:52:58;7.80;91.40
64888;DHT22;51386;53.082;8.816;2023-11-22T00:55:26;7.80;91.30
64888;DHT22;51386;53.082;8.816;2023-11-22T00:57:55;7.80;91.30
64888;DHT22;51386;53.082;8.816;2023-11-22T01:00:28;7.80;91.20
64888;DHT22;51386;53.082;8.816;2023-11-22T01:02:57;7.80;90.90
64888;DHT22;51386;53.082;8.816;2023-11-22T01:05:25;7.80;90.90
64888;DHT22;51386;53.082;8.816;2023-11-22T01:07:54;7.70;90.90
64888;DHT22;51386;53.082;8.816;2023-11-22T01:10:22;7.70;91.00
64888;DHT22;51386;53.082;8.816;2023-11-22T01:12:50;7.60;91.00
64888;DHT22;51386;53.082;8.816;2023-11-22T01:15:19;7.50;91.20
64888;DHT22;51386;53.082;8.816;2023-11-22T01:17:47;7.50;91.10
64888;DHT22;51386;53.082;8.816;2023-11-22T01:20:16;7.40;91.20
64888;DHT22;51386;53.082;8.816;2023-11-22T01:22:45;7.40;91.30
64888;DHT22;51386;53.082;8.816;2023-11-22T01:25:13;7.30;91.30
64888;DHT22;51386;53.082;8.816;2023-11-22T01:27:42;7.30;91.40
64888;DHT22;51386;53.082;8.816;2023-11-22T01:30:10;7.20;91.70
64888;DHT22;51386;53.082;8.816;2023-11-22T01:32:40;7.20;91.80
64888;DHT22;51386;53.082;8.816;2023-11-22T01:35:08;7.30;92.00
64888;DHT22;51386;53.082;8.816;2023-11-22T01:37:37;7.30;91.70
64888;DHT22;51386;53.082;8.816;2023-11-22T01:40:06;7.20;91.40
64888;DHT22;51386;53.082;8.816;2023-11-22T01:42:36;7.10;91.20
64888;DHT22;51386;53.082;8.816;2023-11-22T01:45:08;7.10;91.70
64888;DHT22;51386;53.082;8.816;2023-11-22T01:47:38;7.10;92.00
64888;DHT22;51386;53.082;8.816;2023-11-22T01:50:08;7.10;92.10
64888;DHT22;51386;53.082;8.816;2023-11-22T01:52:38;7.10;92.00
64888;DHT22;51386;53.082;8.816;2023-11-22T01:55:08;7.10;92.10
64888;DHT22;51386;53.082;8.816;2023-11-22T01:57:38;7.10;92.10
64888;DHT22;51386;53.082;8.816;2023-11-22T02:00:06;7.10;92.20
64888;DHT22;51386;53.082;8.816;2023-11-22T02:02:36;7.20;92.20
64888;DHT22;51386;53.082;8.816;2023-11-22T02:05:05;7.30;92.10
64888;DHT22;51386;53.082;8.816;2023-11-22T02:07:33;7.30;91.70
64888;DHT22;51386;53.082;8.816;2023-11-22T02:10:02;7.30;91.60
64888;DHT22;51386;53.082;8.816;2023-11-22T02:12:30;7.30;91.60
64888;DHT22;51386;53.082;8.816;2023-11-22T02:14:59;7.40;91.60
64888;DHT22;51386;53.082;8.816;2023-11-22T02:17:27;7.30;91.50
64888;DHT22;51386;53.082;8.816;2023-11-22T02:19:56;7.40;91.60
64888;DHT22;51386;53.082;8.816;2023-11-22T02:22:25;7.40;91.50
64888;DHT22;51386;53.082;8.816;2023-11-22T02:24:53;7.40;91.40
64888;DHT22;51386;53.082;8.816;2023-11-22T02:27:22;7.50;91.40
64888;DHT22;51386;53.082;8.816;2023-11-22T02:29:50;7.50;91.20
64888;DHT22;51386;53.082;8.816;2023-11-22T02:32:19;7.50;91.20
64888;DHT22;51386;53.082;8.816;2023-11-22T02:34:47;7.50;90.80
64888;DHT22;51386;53.082;8.816;2023-11-22T02:37:15;7.40;91.00
64888;DHT22;51386;53.082;8.816;2023-11-22T02:40:04;7.40;91.10
64888;DHT22;51386;53.082;8.816;2023-11-22T02:42:42;7.40;91.00
64888;DHT22;51386;53.082;8.816;2023-11-22T02:45:11;7.40;91.10
64888;DHT22;51386;53.082;8.816;2023-11-22T02:47:40;7.40;91.10
64888;DHT22;51386;53.082;8.816;2023-11-22T02:50:09;7.40;90.90
64888;DHT22;51386;53.082;8.816;2023-11-22T02:52:37;7.30;90.70
64888;DHT22;51386;53.082;8.816;2023-11-22T02:55:08;7.30;91.00
64888;DHT22;51386;53.082;8.816;2023-11-22T02:57:38;7.20;91.10
64888;DHT22;51386;53.082;8.816;2023-11-22T03:00:10;7.20;91.30
64888;DHT22;51386;53.082;8.816;2023-11-22T03:02:41;7.20;91.40
64888;DHT22;51386;53.082;8.816;2023-11-22T03:05:10;7.20;91.10
64888;DHT22;51386;53.082;8.816;2023-11-22T03:07:39;7.20;90.80
64888;DHT22;51386;53.082;8.816;2023-11-22T03:10:09;7.20;90.90
64888;DHT22;51386;53.082;8.816;2023-11-22T03:12:38;7.10;91.00
64888;DHT22;51386;53.082;8.816;2023-11-22T03:15:07;7.10;91.10
64888;DHT22;51386;53.082;8.816;2023-11-22T03:17:36;7.10;91.00
64888;DHT22;51386;53.082;8.816;2023-11-22T03:20:07;7.10;91.30
64888;DHT22;51386;53.082;8.816;2023-11-22T03:22:38;7.00;91.40
64888;DHT22;51386;53.082;8.816;2023-11-22T03:25:07;7.00;90.90
64888;DHT22;51386;53.082;8.816;2023-11-22T03:27:38;7.00;91.00
64888;DHT22;51386;53.082;8.816;2023-11-22T03:30:07;7.00;91.30
64888;DHT22;51386;53.082;8.816;2023-11-22T03:32:39;7.00;91.30
64888;DHT22;51386;53.082;8.816;2023-11-22T03:35:09;7.00;91.20
64888;DHT22;51386;53.082;8.816;2023-11-22T03:37:38;7.00;91.10
64888;DHT22;51386;53.082;8.816;2023-11-22T03:40:07;7.00;91.20
64888;DHT22;51386;53.082;8.816;2023-11-22T03:42:37;6.90;91.00
64888;DHT22;51386;53.082;8.816;2023-11-22T03:45:06;6.90;91.10
64888;DHT22;51386;53.082;8.816;2023-11-22T03:47:35;6.80;91.00
64888;DHT22;51386;53.082;8.816;2023-11-22T03:50:06;6.80;91.30
64888;DHT22;51386;53.082;8.816;2023-11-22T03:52:35;6.70;91.20
64888;DHT22;51386;53.082;8.816;2023-11-22T03:55:04;6.70;91.10
64888;DHT22;51386;53.082;8.816;2023-11-22T03:57:33;6.70;91.40
64888;DHT22;51386;53.082;8.816;2023-11-22T04:00:02;6.70;91.60
64888;DHT22;51386;53.082;8.816;2023-11-22T04:02:30;6.70;91.60
64888;DHT22;51386;53.082;8.816;2023-11-22T04:04:59;6.70;91.50
64888;DHT22;51386;53.082;8.816;2023-11-22T04:07:27;6.70;91.70
64888;DHT22;51386;53.082;8.816;2023-11-22T04:09:56;6.80;91.60
64888;DHT22;51386;53.082;8.816;2023-11-22T04:12:24;6.80;91.40
64888;DHT22;51386;53.082;8.816;2023-11-22T04:14:53;6.80;91.00
64888;DHT22;51386;53.082;8.816;2023-11-22T04:17:22;6.80;90.70
64888;DHT22;51386;53.082;8.816;2023-11-22T04:19:50;6.70;90.80
64888;DHT22;51386;53.082;8.816;2023-11-22T04:22:19;6.70;90.80
64888;DHT22;51386;53.082;8.816;2023-11-22T04:24:47;6.60;91.10
64888;DHT22;51386;53.082;8.816;2023-11-22T04:27:15;6.60;91.30
64888;DHT22;51386;53.082;8.816;2023-11-22T04:29:44;6.50;91.20
64888;DHT22;51386;53.082;8.816;2023-11-22T04:32:13;6.50;91.40
64888;DHT22;51386;53.082;8.816;2023-11-22T04:34:42;6.50;91.40
64888;DHT22;51386;53.082;8.816;2023-11-22T04:37:18;6.50;91.20
64888;DHT22;51386;53.082;8.816;2023-11-22T04:39:47;6.50;91.30
64888;DHT22;51386;53.082;8.816;2023-11-22T04:42:20;6.40;91.40
64888;DHT22;51386;53.082;8.816;2023-11-22T04:44:49;6.40;91.20
64888;DHT22;51386;53.082;8.816;2023-11-22T04:47:18;6.40;91.30
64888;DHT22;51386;53.082;8.816;2023-11-22T04:49:46;6.40;91.60
64888;DHT22;51386;53.082;8.816;2023-11-22T04:52:15;6.30;91.40
64888;DHT22;51386;53.082;8.816;2023-11-22T04:54:43;6.30;91.30
64888;DHT22;51386;53.082;8.816;2023-11-22T04:57:12;6.30;91.70
64888;DHT22;51386;53.082;8.816;2023-11-22T04:59:41;6.20;91.60
64888;DHT22;51386;53.082;8.816;2023-11-22T05:02:09;6.20;91.60
64888;DHT22;51386;53.082;8.816;2023-11-22T05:04:39;6.20;91.60
64888;DHT22;51386;53.082;8.816;2023-11-22T05:07:08;6.20;91.70
64888;DHT22;51386;53.082;8.816;2023-11-22T05:09:37;6.20;91.80
64888;DHT22;51386;53.082;8.816;2023-11-22T05:12:06;6.20;91.80
64888;DHT22;51386;53.082;8.816;2023-11-22T05:14:34;6.20;91.70
64888;DHT22;51386;53.082;8.816;2023-11-22T05:17:04;6.20;91.60
64888;DHT22;51386;53.082;8.816;2023-11-22T05:19:32;6.10;91.80
64888;DHT22;51386;53.082;8.816;2023-11-22T05:22:01;6.10;91.60
64888;DHT22;51386;53.082;8.816;2023-11-22T05:24:30;6.00;91.60
64888;DHT22;51386;53.082;8.816;2023-11-22T05:26:58;6.00;91.60
64888;DHT22;51386;53.082;8.816;2023-11-22T05:29:27;6.00;91.60
64888;DHT22;51386;53.082;8.816;2023-11-22T05:32:06;6.00;91.60
64888;DHT22;51386;53.082;8.816;2023-11-22T05:34:34;5.90;91.60
64888;DHT22;51386;53.082;8.816;2023-11-22T05:37:03;5.90;92.10
64888;DHT22;51386;53.082;8.816;2023-11-22T05:39:33;5.90;91.80
64888;DHT22;51386;53.082;8.816;2023-11-22T05:42:02;5.80;91.90
64888;DHT22;51386;53.082;8.816;2023-11-22T05:44:31;5.80;91.80
64888;DHT22;51386;53.082;8.816;2023-11-22T05:47:00;5.80;91.90
64888;DHT22;51386;53.082;8.816;2023-11-22T05:49:28;5.70;91.80
64888;DHT22;51386;53.082;8.816;2023-11-22T05:51:56;5.70;91.80
64888;DHT22;51386;53.082;8.816;2023-11-22T05:54:25;5.60;91.70
64888;DHT22;51386;53.082;8.816;2023-11-22T05:56:54;5.60;91.80
64888;DHT22;51386;53.082;8.816;2023-11-22T05:59:22;5.60;91.80
64888;DHT22;51386;53.082;8.816;2023-11-22T06:01:52;5.50;91.80
64888;DHT22;51386;53.082;8.816;2023-11-22T06:04:20;5.50;91.80
64888;DHT22;51386;53.082;8.816;2023-11-22T06:06:48;5.40;91.80
64888;DHT22;51386;53.082;8.816;2023-11-22T06:09:17;5.40;92.50
64888;DHT22;51386;53.082;8.816;2023-11-22T06:11:45;5.40;92.50
64888;DHT22;51386;53.082;8.816;2023-11-22T06:14:14;5.40;92.40
64888;DHT22;51386;53.082;8.816;2023-11-22T06:16:42;5.40;92.50
64888;DHT22;51386;53.082;8.816;2023-11-22T06:19:10;5.40;92.60
64888;DHT22;51386;53.082;8.816;2023-11-22T06:21:39;5.50;92.80
64888;DHT22;51386;53.082;8.816;2023-11-22T06:24:08;5.50;92.60
64888;DHT22;51386;53.082;8.816;2023-11-22T06:26:38;5.50;92.40
64888;DHT22;51386;53.082;8.816;2023-11-22T06:29:08;5.50;92.50
64888;DHT22;51386;53.082;8.816;2023-11-22T06:31:36;5.50;92.80
64888;DHT22;51386;53.082;8.816;2023-11-22T06:34:04;5.50;92.90
64888;DHT22;51386;53.082;8.816;2023-11-22T06:36:33;5.60;93.00
64888;DHT22;51386;53.082;8.816;2023-11-22T06:39:02;5.60;92.90
64888;DHT22;51386;53.082;8.816;2023-11-22T06:41:32;5.70;92.70
64888;DHT22;51386;53.082;8.816;2023-11-22T06:44:00;5.70;92.60
64888;DHT22;51386;53.082;8.816;2023-11-22T06:46:28;5.70;92.50
64888;DHT22;51386;53.082;8.816;2023-11-22T06:48:57;5.70;92.30
64888;DHT22;51386;53.082;8.816;2023-11-22T06:51:26;5.60;92.50
64888;DHT22;51386;53.082;8.816;2023-11-22T06:53:55;5.60;92.60
64888;DHT22;51386;53.082;8.816;2023-11-22T06:56:24;5.60;92.60
64888;DHT22;51386;53.082;8.816;2023-11-22T06:58:53;5.60;92.60
64888;DHT22;51386;53.082;8.816;2023-11-22T07:01:25;5.60;92.80
64888;DHT22;51386;53.082;8.816;2023-11-22T07:03:53;5.60;92.70
64888;DHT22;51386;53.082;8.816;2023-11-22T07:06:22;5.60;92.90
64888;DHT22;51386;53.082;8.816;2023-11-22T07:08:50;5.70;92.90
64888;DHT22;51386;53.082;8.816;2023-11-22T07:11:23;5.60;92.40
64888;DHT22;51386;53.082;8.816;2023-11-22T07:13:52;5.60;92.60
64888;DHT22;51386;53.082;8.816;2023-11-22T07:16:20;5.60;92.50
64888;DHT22;51386;53.082;8.816;2023-11-22T07:18:49;5.50;92.40
64888;DHT22;51386;53.082;8.816;2023-11-22T07:21:17;5.50;92.90
64888;DHT22;51386;53.082;8.816;2023-11-22T07:23:46;5.50;92.80
64888;DHT22;51386;53.082;8.816;2023-11-22T07:26:18;5.50;92.70
64888;DHT22;51386;53.082;8.816;2023-11-22T07:28:47;5.50;92.80
64888;DHT22;51386;53.082;8.816;2023-11-22T07:31:16;5.50;93.20
64888;DHT22;51386;53.082;8.816;2023-11-22T07:33:45;5.50;93.00
64888;DHT22;51386;53.082;8.816;2023-11-22T07:36:17;5.50;93.10
64888;DHT22;51386;53.082;8.816;2023-11-22T07:38:45;5.50;92.90
64888;DHT22;51386;53.082;8.816;2023-11-22T07:41:16;5.50;92.80
64888;DHT22;51386;53.082;8.816;2023-11-22T07:43:44;5.50;92.70
64888;DHT22;51386;53.082;8.816;2023-11-22T07:46:12;5.50;92.90
64888;DHT22;51386;53.082;8.816;2023-11-22T07:48:44;5.50;92.80
64888;DHT22;51386;53.082;8.816;2023-11-22T07:51:15;5.50;92.80
64888;DHT22;51386;53.082;8.816;2023-11-22T07:53:46;5.60;93.00
64888;DHT22;51386;53.082;8.816;2023-11-22T07:56:14;5.60;92.90
64888;DHT22;51386;53.082;8.816;2023-11-22T07:58:45;5.60;92.80
64888;DHT22;51386;53.082;8.816;2023-11-22T08:01:13;5.60;92.60
64888;DHT22;51386;53.082;8.816;2023-11-22T08:03:42;5.60;92.50
64888;DHT22;51386;53.082;8.816;2023-11-22T08:06:15;5.60;92.40
64888;DHT22;51386;53.082;8.816;2023-11-22T08:08:44;5.60;92.60
64888;DHT22;51386;53.082;8.816;2023-11-22T08:11:13;5.60;92.50
64888;DHT22;51386;53.082;8.816;2023-11-22T08:13:48;5.60;92.60
64888;DHT22;51386;53.082;8.816;2023-11-22T08:16:17;5.70;92.90
64888;DHT22;51386;53.082;8.816;2023-11-22T08:18:48;5.70;93.00
64888;DHT22;51386;53.082;8.816;2023-11-22T08:21:16;5.80;92.90
64888;DHT22;51386;53.082;8.816;2023-11-22T08:23:48;5.80;92.70
64888;DHT22;51386;53.082;8.816;2023-11-22T08:26:20;5.90;92.60
64888;DHT22;51386;53.082;8.816;2023-11-22T08:29:33;6.00;92.70
64888;DHT22;51386;53.082;8.816;2023-11-22T08:32:15;6.00;92.40
64888;DHT22;51386;53.082;8.816;2023-11-22T08:34:45;6.10;92.50
64888;DHT22;51386;53.082;8.816;2023-11-22T08:37:14;6.10;92.40
64888;DHT22;51386;53.082;8.816;2023-11-22T08:39:42;6.20;92.30
64888;DHT22;51386;53.082;8.816;2023-11-22T08:42:11;6.20;91.90
64888;DHT22;51386;53.082;8.816;2023-11-22T08:44:42;6.20;91.90
64888;DHT22;51386;53.082;8.816;2023-11-22T08:47:11;6.20;91.80
64888;DHT22;51386;53.082;8.816;2023-11-22T08:49:39;6.20;91.60
64888;DHT22;51386;53.082;8.816;2023-11-22T08:52:09;6.20;91.50
64888;DHT22;51386;53.082;8.816;2023-11-22T08:54:39;6.20;91.40
64888;DHT22;51386;53.082;8.816;2023-11-22T08:57:07;6.10;91.10
64888;DHT22;51386;53.082;8.816;2023-11-22T08:59:38;6.00;91.30
64888;DHT22;51386;53.082;8.816;2023-11-22T09:02:32;6.00;91.40
64888;DHT22;51386;53.082;8.816;2023-11-22T09:05:01;5.90;91.60
64888;DHT22;51386;53.082;8.816;2023-11-22T09:07:35;5.90;91.70
64888;DHT22;51386;53.082;8.816;2023-11-22T09:10:06;5.90;91.70
64888;DHT22;51386;53.082;8.816;2023-11-22T09:12:40;5.90;91.70
64888;DHT22;51386;53.082;8.816;2023-11-22T09:15:12;5.80;91.70
64888;DHT22;51386;53.082;8.816;2023-11-22T09:17:44;5.90;91.70
64888;DHT22;51386;53.082;8.816;2023-11-22T09:20:16;5.80;91.70
64888;DHT22;51386;53.082;8.816;2023-11-22T09:22:54;5.80;91.70
64888;DHT22;51386;53.082;8.816;2023-11-22T09:25:26;5.80;91.70
64888;DHT22;51386;53.082;8.816;2023-11-22T09:27:57;5.80;91.60
64888;DHT22;51386;53.082;8.816;2023-11-22T09:30:31;5.80;91.70
64888;DHT22;51386;53.082;8.816;2023-11-22T09:33:08;5.70;91.90
64888;DHT22;51386;53.082;8.816;2023-11-22T09:35:45;5.80;92.10
64888;DHT22;51386;53.082;8.816;2023-11-22T09:38:15;5.80;91.80
64888;DHT22;51386;53.082;8.816;2023-11-22T09:40:45;5.90;91.60
64888;DHT22;51386;53.082;8.816;2023-11-22T09:43:18;5.90;91.60
64888;DHT22;51386;53.082;8.816;2023-11-22T09:45:48;6.00;91.60
64888;DHT22;51386;53.082;8.816;2023-11-22T09:48:23;6.00;91.20
64888;DHT22;51386;53.082;8.816;2023-11-22T09:51:04;6.10;91.40
64888;DHT22;51386;53.082;8.816;2023-11-22T09:53:58;6.20;91.10
64888;DHT22;51386;53.082;8.816;2023-11-22T09:56:54;6.30;90.20
64888;DHT22;51386;53.082;8.816;2023-11-22T09:59:39;6.40;89.70
64888;DHT22;51386;53.082;8.816;2023-11-22T10:02:09;6.40;89.90
64888;DHT22;51386;53.082;8.816;2023-11-22T10:04:37;6.40;88.80
64888;DHT22;51386;53.082;8.816;2023-11-22T10:07:06;6.40;89.30
64888;DHT22;51386;53.082;8.816;2023-11-22T10:09:36;6.50;88.90
64888;DHT22;51386;53.082;8.816;2023-11-22T10:12:05;6.50;88.90
64888;DHT22;51386;53.082;8.816;2023-11-22T10:14:35;6.50;88.30
64888;DHT22;51386;53.082;8.816;2023-11-22T10:17:05;6.60;88.10
64888;DHT22;51386;53.082;8.816;2023-11-22T10:19:39;6.60;87.00
64888;DHT22;51386;53.082;8.816;2023-11-22T10:22:08;6.60;85.50
64888;DHT22;51386;53.082;8.816;2023-11-22T10:24:37;6.60;85.10
64888;DHT22;51386;53.082;8.816;2023-11-22T10:27:05;6.60;84.90
64888;DHT22;51386;53.082;8.816;2023-11-22T10:29:33;6.70;85.80
64888;DHT22;51386;53.082;8.816;2023-11-22T10:32:04;6.70;86.10
64888;DHT22;51386;53.082;8.816;2023-11-22T10:34:35;6.70;86.00
64888;DHT22;51386;53.082;8.816;2023-11-22T10:37:04;6.70;85.90
64888;DHT22;51386;53.082;8.816;2023-11-22T10:39:32;6.70;85.20
64888;DHT22;51386;53.082;8.816;2023-11-22T10:42:02;6.70;84.00
64888;DHT22;51386;53.082;8.816;2023-11-22T10:44:34;6.70;83.80
64888;DHT22;51386;53.082;8.816;2023-11-22T10:47:04;6.70;82.90
64888;DHT22;51386;53.082;8.816;2023-11-22T10:49:34;6.70;82.60
64888;DHT22;51386;53.082;8.816;2023-11-22T10:52:05;6.70;83.50
64888;DHT22;51386;53.082;8.816;2023-11-22T10:54:37;6.60;84.00
64888;DHT22;51386;53.082;8.816;2023-11-22T10:57:19;6.70;83.90
64888;DHT22;51386;53.082;8.816;2023-11-22T10:59:54;6.70;82.60
64888;DHT22;51386;53.082;8.816;2023-11-22T11:02:24;6.70;81.60
64888;DHT22;51386;53.082;8.816;2023-11-22T11:04:59;6.70;81.70
64888;DHT22;51386;53.082;8.816;2023-11-22T11:07:53;6.70;81.40
64888;DHT22;51386;53.082;8.816;2023-11-22T11:10:40;6.80;82.10
64888;DHT22;51386;53.082;8.816;2023-11-22T11:13:10;6.80;80.80
64888;DHT22;51386;53.082;8.816;2023-11-22T11:15:40;6.90;81.00
64888;DHT22;51386;53.082;8.816;2023-11-22T11:18:16;6.90;80.00
64888;DHT22;51386;53.082;8.816;2023-11-22T11:23:23;6.90;81.20
64888;DHT22;51386;53.082;8.816;2023-11-22T11:26:09;7.00;81.80
64888;DHT22;51386;53.082;8.816;2023-11-22T11:28:47;7.10;81.40
64888;DHT22;51386;53.082;8.816;2023-11-22T11:31:21;7.20;79.20
64888;DHT22;51386;53.082;8.816;2023-11-22T11:36:25;7.40;78.00
64888;DHT22;51386;53.082;8.816;2023-11-22T11:39:01;7.40;75.70
64888;DHT22;51386;53.082;8.816;2023-11-22T11:41:38;7.50;76.70
64888;DHT22;51386;53.082;8.816;2023-11-22T11:44:07;7.50;74.70
64888;DHT22;51386;53.082;8.816;2023-11-22T11:46:40;7.50;74.80
64888;DHT22;51386;53.082;8.816;2023-11-22T11:49:12;7.50;74.90
64888;DHT22;51386;53.082;8.816;2023-11-22T11:51:41;7.50;75.60
64888;DHT22;51386;53.082;8.816;2023-11-22T11:54:12;7.50;74.80
64888;DHT22;51386;53.082;8.816;2023-11-22T11:56:44;7.50;73.70
64888;DHT22;51386;53.082;8.816;2023-11-22T11:59:14;7.40;72.40
64888;DHT22;51386;53.082;8.816;2023-11-22T12:01:42;7.30;70.40
64888;DHT22;51386;53.082;8.816;2023-11-22T12:04:11;7.30;72.00
64888;DHT22;51386;53.082;8.816;2023-11-22T12:06:40;7.30;71.70
64888;DHT22;51386;53.082;8.816;2023-11-22T12:09:09;7.30;70.80
64888;DHT22;51386;53.082;8.816;2023-11-22T12:11:37;7.30;71.30
64888;DHT22;51386;53.082;8.816;2023-11-22T12:14:07;7.20;70.50
64888;DHT22;51386;53.082;8.816;2023-11-22T12:16:36;7.30;69.80
64888;DHT22;51386;53.082;8.816;2023-11-22T12:19:06;7.30;69.20
64888;DHT22;51386;53.082;8.816;2023-11-22T12:21:35;7.20;68.20
64888;DHT22;51386;53.082;8.816;2023-11-22T12:24:04;7.30;67.40
64888;DHT22;51386;53.082;8.816;2023-11-22T12:26:35;7.30;66.40
64888;DHT22;51386;53.082;8.816;2023-11-22T12:29:05;7.30;66.20
64888;DHT22;51386;53.082;8.816;2023-11-22T12:31:44;7.30;67.40
64888;DHT22;51386;53.082;8.816;2023-11-22T12:34:14;7.30;67.80
64888;DHT22;51386;53.082;8.816;2023-11-22T12:36:46;7.30;68.60
64888;DHT22;51386;53.082;8.816;2023-11-22T12:39:15;7.30;68.70
64888;DHT22;51386;53.082;8.816;2023-11-22T12:41:49;7.30;68.80
64888;DHT22;51386;53.082;8.816;2023-11-22T12:44:46;7.30;68.60
64888;DHT22;51386;53.082;8.816;2023-11-22T12:47:35;7.40;67.20
64888;DHT22;51386;53.082;8.816;2023-11-22T12:50:04;7.40;67.50
64888;DHT22;51386;53.082;8.816;2023-11-22T12:52:35;7.40;66.50
64888;DHT22;51386;53.082;8.816;2023-11-22T12:55:03;7.40;65.40
64888;DHT22;51386;53.082;8.816;2023-11-22T12:57:35;7.40;65.20
64888;DHT22;51386;53.082;8.816;2023-11-22T13:00:03;7.30;64.80
64888;DHT22;51386;53.082;8.816;2023-11-22T13:02:34;7.40;65.70
64888;DHT22;51386;53.082;8.816;2023-11-22T13:05:15;7.40;65.50
64888;DHT22;51386;53.082;8.816;2023-11-22T13:07:44;7.30;65.40
64888;DHT22;51386;53.082;8.816;2023-11-22T13:10:13;7.30;65.10
64888;DHT22;51386;53.082;8.816;2023-11-22T13:12:44;7.30;65.30
64888;DHT22;51386;53.082;8.816;2023-11-22T13:15:13;7.30;65.00
64888;DHT22;51386;53.082;8.816;2023-11-22T13:17:42;7.30;64.90
64888;DHT22;51386;53.082;8.816;2023-11-22T13:20:10;7.30;64.70
64888;DHT22;51386;53.082;8.816;2023-11-22T13:22:42;7.30;65.30
64888;DHT22;51386;53.082;8.816;2023-11-22T13:25:11;7.30;64.40
64888;DHT22;51386;53.082;8.816;2023-11-22T13:27:41;7.30;65.30
64888;DHT22;51386;53.082;8.816;2023-11-22T13:30:09;7.30;64.80
64888;DHT22;51386;53.082;8.816;2023-11-22T13:32:38;7.30;64.90
64888;DHT22;51386;53.082;8.816;2023-11-22T13:35:09;7.40;64.20
64888;DHT22;51386;53.082;8.816;2023-11-22T13:37:44;7.30;65.20
64888;DHT22;51386;53.082;8.816;2023-11-22T13:40:18;7.30;66.20
64888;DHT22;51386;53.082;8.816;2023-11-22T13:42:50;7.30;65.60
64888;DHT22;51386;53.082;8.816;2023-11-22T13:45:22;7.30;66.00
64888;DHT22;51386;53.082;8.816;2023-11-22T13:47:53;7.30;64.70
64888;DHT22;51386;53.082;8.816;2023-11-22T13:50:28;7.30;65.30
64888;DHT22;51386;53.082;8.816;2023-11-22T13:52:57;7.30;66.10
64888;DHT22;51386;53.082;8.816;2023-11-22T13:55:27;7.30;65.80
64888;DHT22;51386;53.082;8.816;2023-11-22T13:57:57;7.30;65.10
64888;DHT22;51386;53.082;8.816;2023-11-22T14:00:29;7.30;64.80
64888;DHT22;51386;53.082;8.816;2023-11-22T14:03:03;7.30;65.20
64888;DHT22;51386;53.082;8.816;2023-11-22T14:05:37;7.30;65.30
64888;DHT22;51386;53.082;8.816;2023-11-22T14:08:07;7.20;65.90
64888;DHT22;51386;53.082;8.816;2023-11-22T14:10:35;7.20;66.50
64888;DHT22;51386;53.082;8.816;2023-11-22T14:13:04;7.10;67.10
64888;DHT22;51386;53.082;8.816;2023-11-22T14:15:33;7.00;67.70
64888;DHT22;51386;53.082;8.816;2023-11-22T14:18:03;7.00;68.00
64888;DHT22;51386;53.082;8.816;2023-11-22T14:20:32;7.00;68.60
64888;DHT22;51386;53.082;8.816;2023-11-22T14:23:03;6.90;69.10
64888;DHT22;51386;53.082;8.816;2023-11-22T14:25:32;6.90;69.50
64888;DHT22;51386;53.082;8.816;2023-11-22T14:28:00;6.80;69.30
64888;DHT22;51386;53.082;8.816;2023-11-22T14:30:29;6.90;69.80
64888;DHT22;51386;53.082;8.816;2023-11-22T14:33:03;6.80;69.90
64888;DHT22;51386;53.082;8.816;2023-11-22T14:35:35;6.80;70.30
64888;DHT22;51386;53.082;8.816;2023-11-22T14:38:04;6.80;70.80
64888;DHT22;51386;53.082;8.816;2023-11-22T14:40:34;6.80;71.10
64888;DHT22;51386;53.082;8.816;2023-11-22T14:43:06;6.80;71.10
64888;DHT22;51386;53.082;8.816;2023-11-22T14:45:35;6.80;71.40
64888;DHT22;51386;53.082;8.816;2023-11-22T14:48:05;6.80;71.90
64888;DHT22;51386;53.082;8.816;2023-11-22T14:50:35;6.70;72.20
64888;DHT22;51386;53.082;8.816;2023-11-22T14:53:04;6.70;72.70
64888;DHT22;51386;53.082;8.816;2023-11-22T14:55:33;6.70;72.90
64888;DHT22;51386;53.082;8.816;2023-11-22T14:58:06;6.70;73.30
64888;DHT22;51386;53.082;8.816;2023-11-22T15:00:37;6.70;73.70
64888;DHT22;51386;53.082;8.816;2023-11-22T15:03:10;6.70;74.00
64888;DHT22;51386;53.082;8.816;2023-11-22T15:05:40;6.60;74.70
64888;DHT22;51386;53.082;8.816;2023-11-22T15:08:09;6.60;75.10
64888;DHT22;51386;53.082;8.816;2023-11-22T15:10:38;6.60;75.50
64888;DHT22;51386;53.082;8.816;2023-11-22T15:13:06;6.60;75.50
64888;DHT22;51386;53.082;8.816;2023-11-22T15:15:35;6.60;75.60
64888;DHT22;51386;53.082;8.816;2023-11-22T15:18:04;6.50;75.90
64888;DHT22;51386;53.082;8.816;2023-11-22T15:20:32;6.50;76.10
64888;DHT22;51386;53.082;8.816;2023-11-22T15:23:01;6.50;76.30
64888;DHT22;51386;53.082;8.816;2023-11-22T15:25:31;6.50;76.70
64888;DHT22;51386;53.082;8.816;2023-11-22T15:28:00;6.40;76.70
64888;DHT22;51386;53.082;8.816;2023-11-22T15:30:28;6.40;77.00
64888;DHT22;51386;53.082;8.816;2023-11-22T15:32:56;6.40;77.10
64888;DHT22;51386;53.082;8.816;2023-11-22T15:35:25;6.40;77.50
64888;DHT22;51386;53.082;8.816;2023-11-22T15:37:53;6.30;77.90
64888;DHT22;51386;53.082;8.816;2023-11-22T15:40:22;6.30;78.00
64888;DHT22;51386;53.082;8.816;2023-11-22T15:42:51;6.30;78.30
64888;DHT22;51386;53.082;8.816;2023-11-22T15:45:20;6.30;78.60
64888;DHT22;51386;53.082;8.816;2023-11-22T15:47:49;6.30;79.00
64888;DHT22;51386;53.082;8.816;2023-11-22T15:50:17;6.20;79.30
64888;DHT22;51386;53.082;8.816;2023-11-22T15:52:46;6.30;79.50
64888;DHT22;51386;53.082;8.816;2023-11-22T15:55:14;6.30;79.40
64888;DHT22;51386;53.082;8.816;2023-11-22T15:57:42;6.20;79.80
64888;DHT22;51386;53.082;8.816;2023-11-22T16:00:12;6.20;80.20
64888;DHT22;51386;53.082;8.816;2023-11-22T16:02:43;6.20;80.50
64888;DHT22;51386;53.082;8.816;2023-11-22T16:05:12;6.20;80.90
64888;DHT22;51386;53.082;8.816;2023-11-22T16:07:43;6.20;81.20
64888;DHT22;51386;53.082;8.816;2023-11-22T16:10:12;6.20;81.00